Flinterborg — PHPH — position and weather

sailwx.info

Track history (hours):
 
Tides and Currents Weather Stations Pressure Air Temp Water Temp Dewpoint Dewpoint Depression Visibility Wind Speed Wind Dir Waves Ship Positions

Flinterborg

Last reported at 2014-Sep-17 04:20 UTC. Time now 2014-Sep-19 07:51 UTC.
Position N 59°38' E 020°59'.

Length 111 m; draft 4 m.

Type: Ship. MMSI: 245433000.

Date/timePositionNaut miles runAvg speedWind from/ knotsBaromVisibWave heightAir tempDewpointWater temp
2014-Sep-17 04:20N 59°38' E 020°59'911.7
2014-Sep-17 03:33N 59°35' E 021°16'1211.6
2014-Sep-17 02:33N 59°35' E 021°39'3711.8
2014-Sep-16 23:26N 59°37' E 022°52'1011.8
2014-Sep-16 22:33N 59°39' E 023°12'1212.0
2014-Sep-16 21:33N 59°42' E 023°35'1211.7
2014-Sep-16 20:33N 59°46' E 023°57'1110.9
2014-Sep-16 19:33N 59°54' E 024°12'11 3.2
2014-Sep-16 16:18N 60°01' E 023°55'0 0.0
2014-Sep-16 15:09N 60°01' E 023°55'0 0.0
2014-Sep-16 14:29N 60°01' E 023°55'0 0.0
2014-Sep-16 13:32N 60°01' E 023°55'0 0.0
2014-Sep-16 12:16N 60°01' E 023°55'0 0.0
2014-Sep-16 11:28N 60°01' E 023°55'0 0.0
2014-Sep-16 10:28N 60°01' E 023°55'0 0.0
2014-Sep-16 09:33N 60°01' E 023°55'0 0.0
2014-Sep-16 05:31N 60°01' E 023°55'0 0.0
2014-Sep-15 22:21N 60°01' E 023°55'5 5.8
2014-Sep-15 21:29N 59°58' E 024°04'9 9.1
2014-Sep-15 20:28N 59°49' E 024°06'1111.6
2014-Sep-15 19:34N 59°43' E 023°49'1211.5
2014-Sep-15 18:34N 59°37' E 023°29'18810.9
2014-Sep-15 01:26N 57°53' E 018°29'4711.1
2014-Sep-14 21:12N 57°14' E 017°40'2110.8
2014-Sep-14 19:13N 56°54' E 017°25'3210.5
2014-Sep-14 16:07N 56°24' E 017°05'16 9.8
2014-Sep-14 14:32N 56°09' E 016°54'57 9.4
2014-Sep-14 08:28N 55°39' E 015°28'18 9.3
2014-Sep-14 06:33N 55°30' E 015°01'10 9.0
2014-Sep-14 05:27N 55°25' E 014°45'8 8.9
2014-Sep-14 04:33N 55°20' E 014°34'9 9.2
2014-Sep-14 03:31N 55°13' E 014°23'1010.1
2014-Sep-14 02:33N 55°05' E 014°12'1010.0
2014-Sep-14 01:33N 54°60' E 013°58'39 9.8
2014-Sep-13 21:33N 54°43' E 012°57'10 9.8
2014-Sep-13 20:33N 54°39' E 012°41'9 9.4
2014-Sep-13 19:33N 54°34' E 012°27'1010.1
2014-Sep-13 18:33N 54°28' E 012°14'9 9.2
2014-Sep-13 17:33N 54°25' E 011°59'10 9.8
2014-Sep-13 16:33N 54°26' E 011°42'1010.2
2014-Sep-13 15:33N 54°30' E 011°26'9 9.5
2014-Sep-13 14:33N 54°34' E 011°11'9 8.9
2014-Sep-13 13:33N 54°35' E 010°56'50 6.6
2014-Sep-13 06:04N 54°16' E 009°37'3 6.3
2014-Sep-13 05:33N 54°13' E 009°35'8 8.3
2014-Sep-13 04:33N 54°09' E 009°22'8 7.8
2014-Sep-13 03:33N 54°02' E 009°18'8 7.7
2014-Sep-13 02:33N 53°55' E 009°11'2 2.2
2014-Sep-13 01:34N 53°54' E 009°08'1 1.3
2014-Sep-13 00:33N 53°53' E 009°07'4 4.2
2014-Sep-12 23:33N 53°51' E 009°00'1110.9
2014-Sep-12 22:33N 53°53' E 008°42'1111.2
2014-Sep-12 21:33N 53°59' E 008°25'1111.0
2014-Sep-12 20:33N 53°59' E 008°07'1311.5
2014-Sep-12 19:28N 53°56' E 007°46'1311.0
2014-Sep-12 18:19N 53°53' E 007°25'1110.7
2014-Sep-12 17:16N 53°51' E 007°06'710.5
2014-Sep-12 16:33N 53°49' E 006°54'2210.7
2014-Sep-12 14:30N 53°44' E 006°18'1111.3
2014-Sep-12 13:33N 53°40' E 006°01'1211.7
2014-Sep-12 12:33N 53°36' E 005°43'1212.0
2014-Sep-12 11:33N 53°33' E 005°23'1212.4
2014-Sep-12 10:33N 53°28' E 005°04'1312.6
2014-Sep-12 09:33N 53°23' E 004°44'1212.4
2014-Sep-12 08:33N 53°12' E 004°36'1313.2
2014-Sep-12 07:33N 52°59' E 004°33'1313.4
2014-Sep-12 06:33N 52°46' E 004°31'1413.5
2014-Sep-12 05:33N 52°32' E 004°31'5 5.3
2014-Sep-12 04:33N 52°28' E 004°36'5 5.0
2014-Sep-12 03:34N 52°26' E 004°44'3 2.8
2014-Sep-12 02:33N 52°24' E 004°47'0 0.0
2014-Sep-12 01:32N 52°24' E 004°47'0 0.0
2014-Sep-12 00:32N 52°24' E 004°47'0 0.0
2014-Sep-11 23:31N 52°24' E 004°47'0 0.0
2014-Sep-11 22:31N 52°24' E 004°47'0 0.0
2014-Sep-11 21:33N 52°24' E 004°47'0 0.0
2014-Sep-11 20:33N 52°24' E 004°47'0 0.0
2014-Sep-11 19:32N 52°24' E 004°47'0 0.0
2014-Sep-11 18:32N 52°24' E 004°47'0 0.0
2014-Sep-11 17:32N 52°24' E 004°47'0 0.0
2014-Sep-11 16:31N 52°24' E 004°47'0 0.0
2014-Sep-11 15:31N 52°24' E 004°47'0 0.0
2014-Sep-11 14:33N 52°24' E 004°47'0 0.0
2014-Sep-11 13:33N 52°24' E 004°47'0 0.0
2014-Sep-11 12:31N 52°24' E 004°47'0 0.0
2014-Sep-11 11:31N 52°24' E 004°47'0 0.0
2014-Sep-11 10:30N 52°24' E 004°47'1 0.6
2014-Sep-11 09:34N 52°25' E 004°46'7 7.3
2014-Sep-11 08:33N 52°28' E 004°36'1 1.3
2014-Sep-11 07:34N 52°28' E 004°34'5 5.3
2014-Sep-11 06:33N 52°29' E 004°25'1312.6
2014-Sep-11 05:33N 52°28' E 004°05'1413.2
2014-Sep-11 04:30N 52°21' E 003°44'4114.0
2014-Sep-11 01:33N 51°44' E 003°17'1111.4
2014-Sep-11 00:33N 51°34' E 003°25'1110.9
2014-Sep-10 23:33N 51°26' E 003°37'10 9.8
2014-Sep-10 22:34N 51°20' E 003°49'1 0.6
2014-Sep-10 21:33N 51°19' E 003°49'3 2.3
2014-Sep-10 20:17N 51°16' E 003°51'0 0.0
2014-Sep-10 19:29N 51°16' E 003°51'0 0.0
2014-Sep-10 18:28N 51°16' E 003°51'0 0.0
2014-Sep-10 17:28N 51°16' E 003°51'0 0.0
2014-Sep-10 16:33N 51°16' E 003°51'0 0.0
2014-Sep-10 15:33N 51°16' E 003°51'0 0.0
2014-Sep-10 14:30N 51°16' E 003°51'0 0.0
2014-Sep-10 13:32N 51°16' E 003°51'0 0.0
2014-Sep-10 12:20N 51°16' E 003°51'0 0.0
2014-Sep-10 11:31N 51°16' E 003°51'0 0.0
2014-Sep-10 10:25N 51°16' E 003°51'0 0.0
2014-Sep-10 09:30N 51°16' E 003°51'0 0.0
2014-Sep-10 08:32N 51°16' E 003°51'0 0.0
2014-Sep-10 07:32N 51°16' E 003°51'0 0.0
2014-Sep-10 06:31N 51°16' E 003°51'0 0.0
2014-Sep-10 05:31N 51°16' E 003°51'0 0.0
2014-Sep-10 04:33N 51°16' E 003°51'0 0.0
2014-Sep-10 03:33N 51°16' E 003°51'0 0.0
2014-Sep-10 02:10N 51°16' E 003°51'0 0.0
2014-Sep-10 01:32N 51°16' E 003°51'0 0.0
2014-Sep-10 00:20N 51°16' E 003°51'0 0.0
2014-Sep-09 23:13N 51°16' E 003°51'0 0.0
2014-Sep-09 22:31N 51°16' E 003°51'0 0.0
2014-Sep-09 21:30N 51°16' E 003°51'0 0.0
2014-Sep-09 20:30N 51°16' E 003°51'0 0.0
2014-Sep-09 19:23N 51°16' E 003°51'0 0.0
2014-Sep-09 18:23N 51°16' E 003°51'0 0.0
2014-Sep-09 16:16N 51°16' E 003°51'0 0.0
2014-Sep-09 15:33N 51°16' E 003°51'4 3.5
2014-Sep-09 14:33N 51°20' E 003°49'1 0.6
2014-Sep-09 13:34N 51°20' E 003°49'7 7.1
2014-Sep-09 12:33N 51°26' E 003°41'8 8.0
2014-Sep-09 11:34N 51°29' E 003°30'7 7.4
2014-Sep-09 10:33N 51°35' E 003°23'9 9.3
2014-Sep-09 09:33N 51°44' E 003°16'11811.3
2014-Sep-08 23:08N 53°29' E 004°43'711.8
2014-Sep-08 22:33N 53°31' E 004°54'1111.3
2014-Sep-08 21:33N 53°35' E 005°12'1010.4
2014-Sep-08 20:33N 53°38' E 005°29'9 9.3
2014-Sep-08 19:33N 53°41' E 005°43'10 9.5
2014-Sep-08 18:33N 53°45' E 005°59'5610.7
2014-Sep-08 13:19N 53°59' E 007°30'911.3
2014-Sep-08 12:33N 54°01' E 007°44'1211.6
2014-Sep-08 11:33N 54°01' E 008°04'1110.4
2014-Sep-08 10:32N 53°59' E 008°22'1010.0
2014-Sep-08 09:33N 53°57' E 008°38'9 8.9
2014-Sep-08 08:33N 53°51' E 008°48'1010.0
2014-Sep-08 07:33N 53°53' E 009°05'3 2.6
2014-Sep-08 06:33N 53°54' E 009°09'7 6.9
2014-Sep-08 05:32N 53°59' E 009°17'85 7.1
2014-Sep-07 17:33N 54°32' E 011°31'1212.0
2014-Sep-07 16:33N 54°28' E 011°51'1111.3
2014-Sep-07 15:33N 54°29' E 012°10'1211.7
2014-Sep-07 14:33N 54°36' E 012°26'1211.9
2014-Sep-07 13:33N 54°41' E 012°45'1212.0
2014-Sep-07 12:34N 54°46' E 013°03'1211.9
2014-Sep-07 11:33N 54°51' E 013°22'1212.0
2014-Sep-07 10:33N 54°58' E 013°40'1211.9
2014-Sep-07 09:33N 55°04' E 013°57'1211.8
2014-Sep-07 08:33N 55°11' E 014°13'1211.9
2014-Sep-07 07:33N 55°20' E 014°27'1211.7
2014-Sep-07 06:33N 55°28' E 014°43'1211.7
2014-Sep-07 05:33N 55°34' E 015°00'1211.7
2014-Sep-07 04:33N 55°40' E 015°18'  
Track history (hours):
 
Tides and Currents Weather Stations Pressure Air Temp Water Temp Dewpoint Dewpoint Depression Visibility Wind Speed Wind Dir Waves Ship Positions

Flinterborg

Last reported at 2014-Sep-17 04:20 UTC. Time now 2014-Sep-19 07:51 UTC.
Position N 59°38' E 020°59'.

Length 111 m; draft 4 m.

Type: Ship. MMSI: 245433000.

Date/timePositionNaut miles runAvg speedWind from/ knotsBaromVisibWave heightAir tempDewpointWater temp
2014-Sep-17 04:20N 59°38' E 020°59'911.7
2014-Sep-17 03:33N 59°35' E 021°16'1211.6
2014-Sep-17 02:33N 59°35' E 021°39'3711.8
2014-Sep-16 23:26N 59°37' E 022°52'1011.8
2014-Sep-16 22:33N 59°39' E 023°12'1212.0
2014-Sep-16 21:33N 59°42' E 023°35'1211.7
2014-Sep-16 20:33N 59°46' E 023°57'1110.9
2014-Sep-16 19:33N 59°54' E 024°12'11 3.2
2014-Sep-16 16:18N 60°01' E 023°55'0 0.0
2014-Sep-16 15:09N 60°01' E 023°55'0 0.0
2014-Sep-16 14:29N 60°01' E 023°55'0 0.0
2014-Sep-16 13:32N 60°01' E 023°55'0 0.0
2014-Sep-16 12:16N 60°01' E 023°55'0 0.0
2014-Sep-16 11:28N 60°01' E 023°55'0 0.0
2014-Sep-16 10:28N 60°01' E 023°55'0 0.0
2014-Sep-16 09:33N 60°01' E 023°55'0 0.0
2014-Sep-16 05:31N 60°01' E 023°55'0 0.0
2014-Sep-15 22:21N 60°01' E 023°55'5 5.8
2014-Sep-15 21:29N 59°58' E 024°04'9 9.1
2014-Sep-15 20:28N 59°49' E 024°06'1111.6
2014-Sep-15 19:34N 59°43' E 023°49'1211.5
2014-Sep-15 18:34N 59°37' E 023°29'18810.9
2014-Sep-15 01:26N 57°53' E 018°29'4711.1
2014-Sep-14 21:12N 57°14' E 017°40'2110.8
2014-Sep-14 19:13N 56°54' E 017°25'3210.5
2014-Sep-14 16:07N 56°24' E 017°05'16 9.8
2014-Sep-14 14:32N 56°09' E 016°54'57 9.4
2014-Sep-14 08:28N 55°39' E 015°28'18 9.3
2014-Sep-14 06:33N 55°30' E 015°01'10 9.0
2014-Sep-14 05:27N 55°25' E 014°45'8 8.9
2014-Sep-14 04:33N 55°20' E 014°34'9 9.2
2014-Sep-14 03:31N 55°13' E 014°23'1010.1
2014-Sep-14 02:33N 55°05' E 014°12'1010.0
2014-Sep-14 01:33N 54°60' E 013°58'39 9.8
2014-Sep-13 21:33N 54°43' E 012°57'10 9.8
2014-Sep-13 20:33N 54°39' E 012°41'9 9.4
2014-Sep-13 19:33N 54°34' E 012°27'1010.1
2014-Sep-13 18:33N 54°28' E 012°14'9 9.2
2014-Sep-13 17:33N 54°25' E 011°59'10 9.8
2014-Sep-13 16:33N 54°26' E 011°42'1010.2
2014-Sep-13 15:33N 54°30' E 011°26'9 9.5
2014-Sep-13 14:33N 54°34' E 011°11'9 8.9
2014-Sep-13 13:33N 54°35' E 010°56'50 6.6
2014-Sep-13 06:04N 54°16' E 009°37'3 6.3
2014-Sep-13 05:33N 54°13' E 009°35'8 8.3
2014-Sep-13 04:33N 54°09' E 009°22'8 7.8
2014-Sep-13 03:33N 54°02' E 009°18'8 7.7
2014-Sep-13 02:33N 53°55' E 009°11'2 2.2
2014-Sep-13 01:34N 53°54' E 009°08'1 1.3
2014-Sep-13 00:33N 53°53' E 009°07'4 4.2
2014-Sep-12 23:33N 53°51' E 009°00'1110.9
2014-Sep-12 22:33N 53°53' E 008°42'1111.2
2014-Sep-12 21:33N 53°59' E 008°25'1111.0
2014-Sep-12 20:33N 53°59' E 008°07'1311.5
2014-Sep-12 19:28N 53°56' E 007°46'1311.0
2014-Sep-12 18:19N 53°53' E 007°25'1110.7
2014-Sep-12 17:16N 53°51' E 007°06'710.5
2014-Sep-12 16:33N 53°49' E 006°54'2210.7
2014-Sep-12 14:30N 53°44' E 006°18'1111.3
2014-Sep-12 13:33N 53°40' E 006°01'1211.7
2014-Sep-12 12:33N 53°36' E 005°43'1212.0
2014-Sep-12 11:33N 53°33' E 005°23'1212.4
2014-Sep-12 10:33N 53°28' E 005°04'1312.6
2014-Sep-12 09:33N 53°23' E 004°44'1212.4
2014-Sep-12 08:33N 53°12' E 004°36'1313.2
2014-Sep-12 07:33N 52°59' E 004°33'1313.4
2014-Sep-12 06:33N 52°46' E 004°31'1413.5
2014-Sep-12 05:33N 52°32' E 004°31'5 5.3
2014-Sep-12 04:33N 52°28' E 004°36'5 5.0
2014-Sep-12 03:34N 52°26' E 004°44'3 2.8
2014-Sep-12 02:33N 52°24' E 004°47'0 0.0
2014-Sep-12 01:32N 52°24' E 004°47'0 0.0
2014-Sep-12 00:32N 52°24' E 004°47'0 0.0
2014-Sep-11 23:31N 52°24' E 004°47'0 0.0
2014-Sep-11 22:31N 52°24' E 004°47'0 0.0
2014-Sep-11 21:33N 52°24' E 004°47'0 0.0
2014-Sep-11 20:33N 52°24' E 004°47'0 0.0
2014-Sep-11 19:32N 52°24' E 004°47'0 0.0
2014-Sep-11 18:32N 52°24' E 004°47'0 0.0
2014-Sep-11 17:32N 52°24' E 004°47'0 0.0
2014-Sep-11 16:31N 52°24' E 004°47'0 0.0
2014-Sep-11 15:31N 52°24' E 004°47'0 0.0
2014-Sep-11 14:33N 52°24' E 004°47'0 0.0
2014-Sep-11 13:33N 52°24' E 004°47'0 0.0
2014-Sep-11 12:31N 52°24' E 004°47'0 0.0
2014-Sep-11 11:31N 52°24' E 004°47'0 0.0
2014-Sep-11 10:30N 52°24' E 004°47'1 0.6
2014-Sep-11 09:34N 52°25' E 004°46'7 7.3
2014-Sep-11 08:33N 52°28' E 004°36'1 1.3
2014-Sep-11 07:34N 52°28' E 004°34'5 5.3
2014-Sep-11 06:33N 52°29' E 004°25'1312.6
2014-Sep-11 05:33N 52°28' E 004°05'1413.2
2014-Sep-11 04:30N 52°21' E 003°44'4114.0
2014-Sep-11 01:33N 51°44' E 003°17'1111.4
2014-Sep-11 00:33N 51°34' E 003°25'1110.9
2014-Sep-10 23:33N 51°26' E 003°37'10 9.8
2014-Sep-10 22:34N 51°20' E 003°49'1 0.6
2014-Sep-10 21:33N 51°19' E 003°49'3 2.3
2014-Sep-10 20:17N 51°16' E 003°51'0 0.0
2014-Sep-10 19:29N 51°16' E 003°51'0 0.0
2014-Sep-10 18:28N 51°16' E 003°51'0 0.0
2014-Sep-10 17:28N 51°16' E 003°51'0 0.0
2014-Sep-10 16:33N 51°16' E 003°51'0 0.0
2014-Sep-10 15:33N 51°16' E 003°51'0 0.0
2014-Sep-10 14:30N 51°16' E 003°51'0 0.0
2014-Sep-10 13:32N 51°16' E 003°51'0 0.0
2014-Sep-10 12:20N 51°16' E 003°51'0 0.0
2014-Sep-10 11:31N 51°16' E 003°51'0 0.0
2014-Sep-10 10:25N 51°16' E 003°51'0 0.0
2014-Sep-10 09:30N 51°16' E 003°51'0 0.0
2014-Sep-10 08:32N 51°16' E 003°51'0 0.0
2014-Sep-10 07:32N 51°16' E 003°51'0 0.0
2014-Sep-10 06:31N 51°16' E 003°51'0 0.0
2014-Sep-10 05:31N 51°16' E 003°51'0 0.0
2014-Sep-10 04:33N 51°16' E 003°51'0 0.0
2014-Sep-10 03:33N 51°16' E 003°51'0 0.0
2014-Sep-10 02:10N 51°16' E 003°51'0 0.0
2014-Sep-10 01:32N 51°16' E 003°51'0 0.0
2014-Sep-10 00:20N 51°16' E 003°51'0 0.0
2014-Sep-09 23:13N 51°16' E 003°51'0 0.0
2014-Sep-09 22:31N 51°16' E 003°51'0 0.0
2014-Sep-09 21:30N 51°16' E 003°51'0 0.0
2014-Sep-09 20:30N 51°16' E 003°51'0 0.0
2014-Sep-09 19:23N 51°16' E 003°51'0 0.0
2014-Sep-09 18:23N 51°16' E 003°51'0 0.0
2014-Sep-09 16:16N 51°16' E 003°51'0 0.0
2014-Sep-09 15:33N 51°16' E 003°51'4 3.5
2014-Sep-09 14:33N 51°20' E 003°49'1 0.6
2014-Sep-09 13:34N 51°20' E 003°49'7 7.1
2014-Sep-09 12:33N 51°26' E 003°41'8 8.0
2014-Sep-09 11:34N 51°29' E 003°30'7 7.4
2014-Sep-09 10:33N 51°35' E 003°23'9 9.3
2014-Sep-09 09:33N 51°44' E 003°16'11811.3
2014-Sep-08 23:08N 53°29' E 004°43'711.8
2014-Sep-08 22:33N 53°31' E 004°54'1111.3
2014-Sep-08 21:33N 53°35' E 005°12'1010.4
2014-Sep-08 20:33N 53°38' E 005°29'9 9.3
2014-Sep-08 19:33N 53°41' E 005°43'10 9.5
2014-Sep-08 18:33N 53°45' E 005°59'5610.7
2014-Sep-08 13:19N 53°59' E 007°30'911.3
2014-Sep-08 12:33N 54°01' E 007°44'1211.6
2014-Sep-08 11:33N 54°01' E 008°04'1110.4
2014-Sep-08 10:32N 53°59' E 008°22'1010.0
2014-Sep-08 09:33N 53°57' E 008°38'9 8.9
2014-Sep-08 08:33N 53°51' E 008°48'1010.0
2014-Sep-08 07:33N 53°53' E 009°05'3 2.6
2014-Sep-08 06:33N 53°54' E 009°09'7 6.9
2014-Sep-08 05:32N 53°59' E 009°17'85 7.1
2014-Sep-07 17:33N 54°32' E 011°31'1212.0
2014-Sep-07 16:33N 54°28' E 011°51'1111.3
2014-Sep-07 15:33N 54°29' E 012°10'1211.7
2014-Sep-07 14:33N 54°36' E 012°26'1211.9
2014-Sep-07 13:33N 54°41' E 012°45'1212.0
2014-Sep-07 12:34N 54°46' E 013°03'1211.9
2014-Sep-07 11:33N 54°51' E 013°22'1212.0
2014-Sep-07 10:33N 54°58' E 013°40'1211.9
2014-Sep-07 09:33N 55°04' E 013°57'1211.8
2014-Sep-07 08:33N 55°11' E 014°13'1211.9
2014-Sep-07 07:33N 55°20' E 014°27'1211.7
2014-Sep-07 06:33N 55°28' E 014°43'1211.7
2014-Sep-07 05:33N 55°34' E 015°00'1211.7
2014-Sep-07 04:33N 55°40' E 015°18'  

Dump ship's entire track history